.
WxDataArchive / Data Records for 2007-12-05
2007-12-04 December 2007 2007-12-06

Data Records for Wednesday, 05 December 2007

Time	Temp	Chill	HIndex	Humid	Dewpt	 Wind 	HiWind	WindDir	Rain 	Barom 
-----	----	-----	------	-----	-----	------	------	-------	-----	----- 
00:00	25.6	25.6	25.6	92	23.6	1	3	135	0.00	29.741 
00:05	25.6	25.6	25.6	92	23.6	2	4	112	0.00	29.743 
00:10	25.6	25.6	25.6	92	23.6	1	3	112	0.00	29.738 
00:15	25.6	25.6	25.6	92	23.6	2	4	112	0.00	29.737 
00:20	25.6	25.6	25.6	92	23.6	2	4	112	0.00	29.736 
00:25	25.6	25.6	25.6	92	23.6	1	5	112	0.00	29.735 
00:30	25.6	25.6	25.6	92	23.6	1	3	112	0.00	29.732 
00:35	25.6	25.6	25.6	92	23.6	1	3	112	0.00	29.732 
00:40	25.6	25.6	25.6	92	23.6	1	4	112	0.00	29.724 
00:45	25.6	25.6	25.6	92	23.6	1	4	90	0.00	29.721 
00:50	25.6	25.6	25.6	92	23.6	2	4	90	0.00	29.716 
00:55	25.6	25.6	25.6	92	23.6	1	6	90	0.00	29.712 
01:00	25.6	25.6	25.6	92	23.6	2	5	90	0.00	29.709 
01:05	25.4	25.4	25.4	92	23.4	2	5	112	0.00	29.705 
01:10	25.4	25.4	25.4	92	23.4	2	6	112	0.00	29.705 
01:15	25.4	25.4	25.4	92	23.4	2	5	90	0.00	29.704 
01:20	25.3	25.3	25.3	92	23.3	3	7	90	0.00	29.701 
01:25	25.3	25.3	25.3	92	23.3	2	5	90	0.00	29.699 
01:30	25.3	25.3	25.3	92	23.3	2	6	112	0.00	29.695 
01:35	25.1	25.1	25.1	92	23.1	3	6	112	0.00	29.691 
01:40	25.1	25.1	25.1	92	23.1	3	7	90	0.00	29.687 
01:45	25.1	25.1	25.1	92	23.1	3	5	112	0.00	29.686 
01:50	25.0	25.0	25.0	92	23.0	2	6	90	0.00	29.685 
01:55	25.0	25.0	25.0	92	23.0	3	6	112	0.00	29.683 
02:00	25.0	25.0	25.0	92	23.0	3	7	112	0.00	29.687 
02:05	25.0	25.0	25.0	92	23.0	2	6	112	0.00	29.684 
02:10	25.0	25.0	25.0	92	23.0	3	7	90	0.00	29.679 
02:15	25.0	25.0	25.0	92	23.0	3	9	90	0.00	29.676 
02:20	25.0	25.0	25.0	92	23.0	2	5	90	0.00	29.674 
02:25	25.0	25.0	25.0	92	23.0	2	5	90	0.00	29.674 
02:30	25.0	25.0	25.0	92	23.0	2	4	112	0.00	29.672 
02:35	25.0	25.0	25.0	92	23.0	2	7	112	0.00	29.672 
02:40	24.8	24.8	24.8	92	22.8	3	7	90	0.00	29.674 
02:45	24.8	24.8	24.8	92	22.8	3	8	112	0.00	29.672 
02:50	24.7	19.6	24.7	92	22.7	4	7	112	0.00	29.672 
02:55	24.7	24.7	24.7	92	22.7	3	10	90	0.00	29.672 
03:00	24.7	24.7	24.7	91	22.5	3	6	90	0.00	29.674 
03:05	24.7	24.7	24.7	91	22.5	2	7	90	0.00	29.676 
03:10	24.7	24.7	24.7	91	22.5	3	9	90	0.00	29.674 
03:15	24.5	19.4	24.5	91	22.3	4	9	112	0.00	29.669 
03:20	24.5	24.5	24.5	91	22.3	2	6	90	0.00	29.669 
03:25	24.5	24.5	24.5	91	22.3	3	7	90	0.00	29.666 
03:30	24.5	24.5	24.5	91	22.3	3	9	112	0.00	29.666 
03:35	24.5	24.5	24.5	91	22.3	2	6	90	0.00	29.663 
03:40	24.4	24.4	24.4	91	22.2	2	10	112	0.00	29.658 
03:45	24.4	24.4	24.4	91	22.2	3	6	112	0.00	29.656 
03:50	24.2	19.1	24.2	91	22.0	4	11	90	0.00	29.647 
03:55	24.2	17.9	24.2	91	22.0	5	10	90	0.00	29.642 
04:00	24.1	24.1	24.1	91	21.9	2	5	90	0.00	29.639 
04:05	23.9	18.7	23.9	91	21.7	4	11	90	0.00	29.638 
04:10	23.9	23.9	23.9	91	21.7	3	8	112	0.00	29.635 
04:15	23.8	23.8	23.8	91	21.6	2	7	90	0.00	29.640 
04:20	23.6	23.6	23.6	91	21.4	2	6	90	0.00	29.643 
04:25	23.5	23.5	23.5	91	21.3	2	6	68	0.00	29.644 
04:30	23.5	23.5	23.5	91	21.3	2	5	90	0.00	29.645 
04:35	23.3	23.3	23.3	91	21.1	3	10	90	0.00	29.644 
04:40	23.2	23.2	23.2	91	21.0	3	10	90	0.00	29.642 
04:45	23.0	23.0	23.0	91	20.8	2	7	112	0.00	29.643 
04:50	23.0	23.0	23.0	91	20.8	2	6	90	0.00	29.643 
04:55	22.9	22.9	22.9	91	20.7	2	9	45	0.00	29.643 
05:00	22.9	22.9	22.9	91	20.7	2	7	90	0.00	29.642 
05:05	22.9	22.9	22.9	91	20.7	2	5	112	0.00	29.644 
05:10	22.7	22.7	22.7	91	20.5	2	5	22	0.00	29.645 
05:15	22.7	22.7	22.7	91	20.5	2	4	112	0.00	29.646 
05:20	22.7	22.7	22.7	91	20.5	2	8	45	0.00	29.647 
05:25	22.5	22.5	22.5	90	20.0	2	6	112	0.00	29.647 
05:30	22.4	22.4	22.4	90	19.9	3	9	135	0.00	29.647 
05:35	22.4	22.4	22.4	90	19.9	3	7	112	0.00	29.648 
05:40	22.4	22.4	22.4	90	19.9	3	7	112	0.00	29.649 
05:45	22.2	22.2	22.2	90	19.7	2	5	112	0.00	29.652 
05:50	22.2	22.2	22.2	90	19.7	2	6	112	0.00	29.655 
05:55	22.1	22.1	22.1	90	19.6	2	6	112	0.00	29.657 
06:00	22.1	22.1	22.1	90	19.6	2	6	112	0.00	29.660 
06:05	22.1	22.1	22.1	90	19.6	2	5	45	0.00	29.662 
06:10	22.1	22.1	22.1	89	19.4	2	5	45	0.00	29.662 
06:15	22.1	22.1	22.1	89	19.4	1	4	68	0.00	29.663 
06:20	22.1	22.1	22.1	89	19.4	1	5	68	0.00	29.664 
06:25	21.9	21.9	21.9	89	19.2	2	6	90	0.00	29.667 
06:30	21.9	21.9	21.9	89	19.2	2	6	68	0.00	29.672 
06:35	21.9	21.9	21.9	89	19.2	2	5	90	0.00	29.673 
06:40	21.9	21.9	21.9	89	19.2	2	9	45	0.00	29.676 
06:45	21.8	21.8	21.8	89	19.1	2	5	112	0.00	29.677 
06:50	21.8	21.8	21.8	89	19.1	2	6	45	0.00	29.677 
06:55	21.8	21.8	21.8	89	19.1	3	9	90	0.00	29.679 
07:00	21.6	21.6	21.6	89	18.9	2	6	135	0.00	29.678 
07:05	21.6	21.6	21.6	89	18.9	2	5	68	0.00	29.678 
07:10	21.6	21.6	21.6	89	18.9	2	5	112	0.00	29.679 
07:15	21.6	21.6	21.6	88	18.6	2	7	45	0.00	29.680 
07:20	21.4	21.4	21.4	89	18.7	2	5	112	0.00	29.685 
07:25	21.6	21.6	21.6	89	18.9	2	6	90	0.00	29.689 
07:30	21.6	21.6	21.6	89	18.9	1	5	90	0.00	29.693 
07:35	21.6	21.6	21.6	89	18.9	2	6	90	0.00	29.695 
07:40	21.6	21.6	21.6	89	18.9	2	4	68	0.00	29.698 
07:45	21.6	21.6	21.6	89	18.9	1	4	68	0.00	29.697 
07:50	21.6	21.6	21.6	89	18.9	1	7	68	0.00	29.698 
07:55	21.4	21.4	21.4	89	18.7	1	4	90	0.00	29.697 
08:00	21.4	21.4	21.4	89	18.7	1	4	90	0.00	29.696 
08:05	21.4	21.4	21.4	88	18.4	2	6	45	0.00	29.702 
08:10	21.4	21.4	21.4	88	18.4	2	5	22	0.00	29.710 
08:15	21.4	21.4	21.4	88	18.4	1	3	45	0.00	29.711 
08:20	21.4	21.4	21.4	88	18.4	2	5	22	0.00	29.712 
08:25	21.6	21.6	21.6	88	18.6	1	4	90	0.00	29.710 
08:30	21.6	21.6	21.6	88	18.6	0	3	112	0.00	29.710 
08:35	21.6	21.6	21.6	88	18.6	2	6	68	0.00	29.715 
08:40	21.6	21.6	21.6	88	18.6	1	5	68	0.00	29.717 
08:45	21.6	21.6	21.6	88	18.6	1	4	45	0.00	29.719 
08:50	21.8	21.8	21.8	87	18.5	1	2	68	0.00	29.724 
08:55	21.8	21.8	21.8	87	18.5	1	4	45	0.00	29.726 
09:00	21.9	21.9	21.9	87	18.6	1	5	68	0.00	29.727 
09:05	21.9	21.9	21.9	86	18.4	1	5	112	0.00	29.730 
09:10	22.1	22.1	22.1	86	18.6	1	4	45	0.00	29.733 
09:15	22.2	22.2	22.2	86	18.7	1	5	45	0.00	29.736 
09:20	22.2	22.2	22.2	86	18.7	2	7	112	0.00	29.742 
09:25	22.4	22.4	22.4	86	18.9	1	5	112	0.00	29.743 
09:30	22.4	22.4	22.4	85	18.6	2	6	45	0.00	29.743 
09:35	22.4	22.4	22.4	85	18.6	2	6	112	0.00	29.745 
09:40	22.5	22.5	22.5	85	18.7	2	5	22	0.00	29.747 
09:45	22.5	22.5	22.5	85	18.7	1	4	45	0.00	29.758 
09:50	22.7	22.7	22.7	84	18.6	1	5	90	0.00	29.760 
09:55	22.7	22.7	22.7	84	18.6	1	3	22	0.00	29.761 
10:00	22.9	22.9	22.9	84	18.8	2	6	112	0.00	29.761 
10:05	22.9	22.9	22.9	83	18.5	1	4	45	0.00	29.764 
10:10	23.0	23.0	23.0	83	18.6	1	5	135	0.00	29.768 
10:15	23.2	23.2	23.2	83	18.8	1	3	45	0.00	29.771 
10:20	23.2	23.2	23.2	82	18.5	2	5	45	0.00	29.772 
10:25	23.3	23.3	23.3	81	18.3	2	6	45	0.00	29.772 
10:30	23.5	23.5	23.5	81	18.5	1	5	45	0.00	29.777 
10:35	23.6	23.6	23.6	81	18.6	1	4	0	0.00	29.777 
10:40	23.9	23.9	23.9	79	18.4	2	6	0	0.00	29.775 
10:45	24.1	24.1	24.1	79	18.5	2	6	0	0.00	29.778 
10:50	24.2	24.2	24.2	78	18.3	1	6	22	0.00	29.779 
10:55	24.4	24.4	24.4	78	18.5	1	4	0	0.00	29.783 
11:00	24.4	24.4	24.4	77	18.2	2	7	22	0.00	29.788 
11:05	24.5	24.5	24.5	78	18.6	2	8	22	0.00	29.789 
11:10	24.7	24.7	24.7	77	18.5	2	6	22	0.00	29.790 
11:15	24.8	24.8	24.8	77	18.6	1	4	45	0.00	29.793 
11:20	24.8	24.8	24.8	77	18.6	2	6	0	0.00	29.795 
11:25	24.8	24.8	24.8	77	18.6	2	6	22	0.00	29.800 
11:30	24.8	24.8	24.8	75	18.0	2	5	0	0.00	29.804 
11:35	24.5	24.5	24.5	73	17.1	2	7	22	0.00	29.805 
11:40	24.7	24.7	24.7	73	17.3	2	6	22	0.00	29.807 
11:45	25.0	25.0	25.0	74	17.9	2	6	112	0.00	29.808 
11:50	25.4	25.4	25.4	73	18.0	1	5	22	0.00	29.811 
11:55	25.4	25.4	25.4	73	18.0	1	3	22	0.00	29.817 
12:00	25.1	25.1	25.1	72	17.4	2	9	338	0.00	29.818 
12:05	25.0	25.0	25.0	72	17.3	2	7	338	0.00	29.820 
12:10	24.7	24.7	24.7	71	16.7	2	6	22	0.00	29.822 
12:15	24.5	24.5	24.5	70	16.1	2	6	22	0.00	29.823 
12:20	24.7	24.7	24.7	70	16.3	1	4	315	0.00	29.827 
12:25	24.5	24.5	24.5	69	15.8	2	7	315	0.00	29.830 
12:30	24.2	24.2	24.2	69	15.5	3	10	338	0.00	29.832 
12:35	23.9	23.9	23.9	69	15.2	3	9	45	0.00	29.837 
12:40	24.2	24.2	24.2	69	15.5	2	10	22	0.00	29.837 
12:45	24.2	24.2	24.2	69	15.5	2	6	45	0.00	29.839 
12:50	24.4	24.4	24.4	69	15.7	1	6	45	0.00	29.840 
12:55	24.4	24.4	24.4	69	15.7	2	9	22	0.00	29.842 
13:00	24.5	24.5	24.5	68	15.5	2	5	0	0.00	29.844 
13:05	24.5	24.5	24.5	67	15.1	3	11	22	0.00	29.851 
13:10	24.5	24.5	24.5	67	15.1	2	6	0	0.00	29.853 
13:15	24.7	24.7	24.7	67	15.3	2	4	22	0.00	29.853 
13:20	25.0	25.0	25.0	66	15.3	2	7	315	0.00	29.853 
13:25	25.0	25.0	25.0	65	14.9	2	7	0	0.00	29.853 
13:30	24.8	24.8	24.8	66	15.1	2	6	338	0.00	29.854 
13:35	25.0	25.0	25.0	65	14.9	2	6	22	0.00	29.855 
13:40	25.1	25.1	25.1	65	15.0	3	10	22	0.00	29.859 
13:45	25.1	25.1	25.1	66	15.4	1	6	22	0.00	29.866 
13:50	25.3	25.3	25.3	65	15.2	2	6	315	0.00	29.867 
13:55	25.3	25.3	25.3	64	14.9	3	7	338	0.00	29.869 
14:00	25.4	25.4	25.4	65	15.3	2	5	0	0.00	29.868 
14:05	25.4	25.4	25.4	64	14.9	2	10	338	0.00	29.870 
14:10	25.4	25.4	25.4	63	14.6	3	7	0	0.00	29.872 
14:15	25.6	25.6	25.6	64	15.1	2	9	22	0.00	29.876 
14:20	25.6	25.6	25.6	64	15.1	1	4	338	0.00	29.881 
14:25	25.7	25.7	25.7	62	14.5	1	6	315	0.00	29.879 
14:30	26.0	26.0	26.0	63	15.2	1	3	338	0.00	29.883 
14:35	26.1	26.1	26.1	62	14.9	1	5	338	0.00	29.885 
14:40	26.0	26.0	26.0	61	14.4	2	5	338	0.00	29.885 
14:45	25.7	25.7	25.7	61	14.1	2	6	315	0.00	29.885 
14:50	25.6	25.6	25.6	61	14.0	2	4	0	0.00	29.884 
14:55	25.7	25.7	25.7	61	14.1	1	4	0	0.00	29.886 
15:00	25.7	25.7	25.7	60	13.8	2	6	0	0.00	29.889 
15:05	25.7	25.7	25.7	61	14.1	1	5	0	0.00	29.896 
15:10	25.7	25.7	25.7	60	13.8	1	9	22	0.00	29.900 
15:15	25.7	25.7	25.7	60	13.8	2	7	22	0.00	29.901 
15:20	25.6	25.6	25.6	60	13.7	1	4	0	0.00	29.903 
15:25	25.7	25.7	25.7	60	13.8	1	5	22	0.00	29.908 
15:30	25.8	25.8	25.8	61	14.2	1	3	338	0.00	29.915 
15:35	25.7	25.7	25.7	59	13.4	2	6	315	0.00	29.917 
15:40	25.6	25.6	25.6	59	13.3	1	6	22	0.00	29.921 
15:45	25.6	25.6	25.6	59	13.3	1	3	315	0.00	29.927 
15:50	25.4	25.4	25.4	59	13.1	2	6	0	0.00	29.933 
15:55	25.3	25.3	25.3	59	13.0	2	7	338	0.00	29.935 
16:00	25.1	25.1	25.1	58	12.4	2	6	338	0.00	29.940 
16:05	25.0	25.0	25.0	59	12.7	2	5	22	0.00	29.945 
16:10	25.0	25.0	25.0	59	12.7	1	4	45	0.00	29.949 
16:15	24.8	24.8	24.8	59	12.5	1	3	338	0.00	29.952 
16:20	24.7	24.7	24.7	59	12.4	1	4	0	0.00	29.955 
16:25	24.7	24.7	24.7	59	12.4	1	5	0	0.00	29.963 
16:30	24.5	24.5	24.5	59	12.3	1	3	0	0.00	29.966 
16:35	24.4	24.4	24.4	59	12.2	1	4	0	0.00	29.969 
16:40	24.4	24.4	24.4	59	12.2	1	3	22	0.00	29.973 
16:45	24.2	24.2	24.2	59	12.0	1	3	0	0.00	29.980 
16:50	24.1	24.1	24.1	59	11.9	1	4	338	0.00	29.982 
16:55	23.9	23.9	23.9	60	12.1	0	3	338	0.00	29.983 
17:00	23.6	23.6	23.6	60	11.8	0	2	0	0.00	29.985 
17:05	23.5	23.5	23.5	60	11.7	1	2	0	0.00	29.988 
17:10	23.5	23.5	23.5	61	12.1	1	4	315	0.00	29.993 
17:15	23.2	23.2	23.2	61	11.8	0	2	0	0.00	30.000 
17:20	22.9	22.9	22.9	62	11.9	0	1	0	0.00	30.002 
17:25	22.5	22.5	22.5	63	11.8	0	1	0	0.00	30.007 
17:30	22.2	22.2	22.2	64	11.9	0	1	0	0.00	30.014 
17:35	21.9	21.9	21.9	64	11.6	0	1	0	0.00	30.017 
17:40	21.8	21.8	21.8	64	11.5	0	1	0	0.00	30.022 
17:45	21.6	21.6	21.6	64	11.3	0	2	0	0.00	30.029 
17:50	21.3	21.3	21.3	65	11.4	0	0	---	0.00	30.033 
17:55	21.1	21.1	21.1	65	11.2	0	3	270	0.00	30.035 
18:00	21.0	21.0	21.0	65	11.1	0	1	270	0.00	30.038 
18:05	20.8	20.8	20.8	65	10.9	0	0	---	0.00	30.042 
18:10	20.6	20.6	20.6	66	11.1	0	0	---	0.00	30.049 
18:15	20.3	20.3	20.3	66	10.8	0	0	---	0.00	30.050 
18:20	19.9	19.9	19.9	67	10.7	0	0	---	0.00	30.051 
18:25	19.4	19.4	19.4	67	10.3	0	0	---	0.00	30.051 
18:30	18.9	18.9	18.9	68	10.1	0	0	---	0.00	30.055 
18:35	18.3	18.3	18.3	69	9.9	0	0	---	0.00	30.062 
18:40	17.7	17.7	17.7	71	9.9	0	0	---	0.00	30.066 
18:45	17.3	17.3	17.3	73	10.2	0	0	---	0.00	30.071 
18:50	17.2	17.2	17.2	74	10.4	0	0	---	0.00	30.075 
18:55	17.0	17.0	17.0	76	10.8	0	0	---	0.00	30.084 
19:00	16.9	16.9	16.9	76	10.7	0	1	270	0.00	30.086 
19:05	17.0	17.0	17.0	76	10.8	0	0	---	0.00	30.088 
19:10	17.2	17.2	17.2	76	11.0	0	1	270	0.00	30.094 
19:15	17.3	17.3	17.3	75	10.8	0	0	---	0.00	30.098 
19:20	17.5	17.5	17.5	74	10.7	0	0	---	0.00	30.100 
19:25	17.7	17.7	17.7	73	10.5	0	0	---	0.00	30.102 
19:30	17.5	17.5	17.5	73	10.3	0	0	---	0.00	30.102 
19:35	17.5	17.5	17.5	72	10.0	0	0	---	0.00	30.104 
19:40	17.3	17.3	17.3	72	9.8	0	0	---	0.00	30.109 
19:45	17.2	17.2	17.2	72	9.8	0	0	---	0.00	30.111 
19:50	16.9	16.9	16.9	72	9.5	0	0	---	0.00	30.112 
19:55	16.5	16.5	16.5	72	9.1	0	0	---	0.00	30.115 
20:00	16.2	16.2	16.2	73	9.1	0	0	---	0.00	30.118 
20:05	15.9	15.9	15.9	73	8.8	0	0	---	0.00	30.117 
20:10	15.6	15.6	15.6	74	8.8	0	0	---	0.00	30.118 
20:15	15.2	15.2	15.2	74	8.4	0	0	---	0.00	30.120 
20:20	14.9	14.9	14.9	76	8.7	0	0	---	0.00	30.124 
20:25	14.6	14.6	14.6	76	8.4	0	0	---	0.00	30.123 
20:30	14.3	14.3	14.3	77	8.4	0	0	---	0.00	30.128 
20:35	14.0	14.0	14.0	77	8.1	0	0	---	0.00	30.127 
20:40	13.3	13.3	13.3	78	7.7	0	0	---	0.00	30.127 
20:45	12.9	12.9	12.9	80	7.9	0	0	---	0.00	30.133 
20:50	12.8	12.8	12.8	80	7.8	0	0	---	0.00	30.132 
20:55	12.4	12.4	12.4	81	7.7	0	0	---	0.00	30.136 
21:00	12.3	12.3	12.3	81	7.6	0	1	270	0.00	30.138 
21:05	11.9	11.9	11.9	81	7.2	0	0	---	0.00	30.139 
21:10	11.7	11.7	11.7	81	7.0	0	0	---	0.00	30.139 
21:15	11.4	11.4	11.4	82	7.0	0	0	---	0.00	30.139 
21:20	11.2	11.2	11.2	82	6.8	0	0	---	0.00	30.140 
21:25	10.9	10.9	10.9	83	6.8	0	0	---	0.00	30.142 
21:30	10.7	10.7	10.7	83	6.6	0	0	---	0.00	30.144 
21:35	10.4	10.4	10.4	83	6.3	0	0	---	0.00	30.144 
21:40	10.0	10.0	10.0	83	5.9	0	0	---	0.00	30.145 
21:45	9.9	9.9	9.9	84	6.1	0	0	---	0.00	30.146 
21:50	9.7	9.7	9.7	84	5.9	0	0	---	0.00	30.149 
21:55	9.5	9.5	9.5	84	5.7	0	0	---	0.00	30.147 
22:00	9.5	9.5	9.5	84	5.7	0	0	---	0.00	30.145 
22:05	9.5	9.5	9.5	84	5.7	0	0	---	0.00	30.148 
22:10	9.5	9.5	9.5	84	5.7	0	0	---	0.00	30.150 
22:15	9.5	9.5	9.5	85	5.9	0	0	---	0.00	30.152 
22:20	9.7	9.7	9.7	85	6.1	0	0	---	0.00	30.155 
22:25	9.9	9.9	9.9	85	6.3	0	0	---	0.00	30.156 
22:30	10.0	10.0	10.0	86	6.7	0	0	---	0.00	30.160 
22:35	10.2	10.2	10.2	86	6.9	0	0	---	0.00	30.159 
22:40	10.5	10.5	10.5	86	7.2	0	0	---	0.00	30.158 
22:45	10.5	10.5	10.5	86	7.2	0	0	---	0.00	30.162 
22:50	10.5	10.5	10.5	86	7.2	0	0	---	0.00	30.167 
22:55	10.5	10.5	10.5	86	7.2	0	0	---	0.00	30.168 
23:00	10.4	10.4	10.4	85	6.8	0	0	---	0.00	30.169 
23:05	10.4	10.4	10.4	85	6.8	0	0	---	0.00	30.173 
23:10	10.5	10.5	10.5	86	7.2	0	0	---	0.00	30.172 
23:15	10.7	10.7	10.7	86	7.4	0	0	---	0.00	30.173 
23:20	10.9	10.9	10.9	86	7.6	0	0	---	0.00	30.178 
23:25	10.9	10.9	10.9	86	7.6	0	0	---	0.00	30.179 
23:30	10.7	10.7	10.7	85	7.1	0	0	---	0.00	30.181 
23:35	10.5	10.5	10.5	85	6.9	0	0	---	0.00	30.182 
23:40	10.5	10.5	10.5	85	6.9	0	0	---	0.00	30.183 
23:45	10.2	10.2	10.2	85	6.6	0	0	---	0.00	30.187 
23:50	10.0	10.0	10.0	84	6.2	0	0	---	0.00	30.194 
23:55	10.0	10.0	10.0	85	6.4	0	0	---	0.00	30.196 

CoCoRaHS
IN-AL-39
A2 Web Hosting
Creative Commons License
GoDaddy
Look for:

loaded 2017-12-13 09:51:22 • last modified 2010-11-18 10:43:29
Privacy PolicyDisclaimer
• wx.awcolley.com is powered by PmWiki v.2002016 •
• all content (unless otherwise noted) © 2017 A W Colley